Time;durP1;ratioP1;P1;durP2;ratioP2;P2;SDS_P1;SDS_P2;PMS_P1;PMS_P2;Temp;Humidity;BMP_temperature;BMP_pressure;BME280_temperature;BME280_humidity;BME280_pressure;Samples;Min_cycle;Max_cycle;Signal;HPM_P1;HPM_P2
2023/01/19 00:00:59;;;;;;;5.40;3.10;;;;;;;;;;5140530;27;20525;-68
2023/01/19 00:03:24;;;;;;;8.30;3.43;;;;;;;;;;5115084;27;20407;-68
2023/01/19 00:05:50;;;;;;;8.17;3.80;;;;;;;;;;5143734;27;20331;-68
2023/01/19 00:08:15;;;;;;;6.57;3.75;;;;;;;;;;5129571;27;20112;-69
2023/01/19 00:10:41;;;;;;;10.23;4.60;;;;;;;;;;5140518;27;20015;-69
2023/01/19 00:13:07;;;;;;;10.68;5.75;;;;;;;;;;5133310;27;20503;-68
2023/01/19 00:15:32;;;;;;;9.63;5.50;;;;;;;;;;5124389;27;20047;-68
2023/01/19 00:17:57;;;;;;;11.43;5.70;;;;;;;;;;5136986;27;20151;-68
2023/01/19 00:20:22;;;;;;;9.63;5.50;;;;;;;;;;5121651;27;20051;-69
2023/01/19 00:22:49;;;;;;;10.82;5.70;;;;;;;;;;5131046;27;20035;-68
2023/01/19 00:25:15;;;;;;;9.85;5.60;;;;;;;;;;5111544;27;20485;-69
2023/01/19 00:27:40;;;;;;;10.00;5.45;;;;;;;;;;5123923;27;20023;-68
2023/01/19 00:30:06;;;;;;;8.03;5.87;;;;;;;;;;5135029;27;20430;-68
2023/01/19 00:32:31;;;;;;;10.07;5.68;;;;;;;;;;5130493;27;20398;-68
2023/01/19 00:34:56;;;;;;;7.93;5.50;;;;;;;;;;5129134;27;20088;-69
2023/01/19 00:37:21;;;;;;;14.10;5.73;;;;;;;;;;5123279;27;20269;-67
2023/01/19 00:39:47;;;;;;;11.10;5.85;;;;;;;;;;5135219;27;20571;-68
2023/01/19 00:44:56;;;;;;;16.58;6.65;;;;;;;;;;5136499;27;20065;-69
2023/01/19 00:47:21;;;;;;;10.30;5.83;;;;;;;;;;5131210;27;20019;-68
2023/01/19 00:49:47;;;;;;;13.03;6.10;;;;;;;;;;5135695;27;20360;-68
2023/01/19 00:52:12;;;;;;;11.27;5.97;;;;;;;;;;5136729;27;20674;-68
2023/01/19 00:54:37;;;;;;;11.03;5.60;;;;;;;;;;5116385;27;20030;-69
2023/01/19 00:57:03;;;;;;;11.47;5.33;;;;;;;;;;5137378;27;20126;-68
2023/01/19 00:59:28;;;;;;;15.60;5.97;;;;;;;;;;5114101;27;20080;-68
2023/01/19 01:01:53;;;;;;;11.27;4.95;;;;;;;;;;5131875;27;20058;-68
2023/01/19 01:04:19;;;;;;;12.53;5.17;;;;;;;;;;5130365;27;20023;-70
2023/01/19 01:06:44;;;;;;;10.30;4.50;;;;;;;;;;5126868;27;20321;-69
2023/01/19 01:09:12;;;;;;;17.60;4.77;;;;;;;;;;5125713;27;21075;-68
2023/01/19 01:11:38;;;;;;;13.02;4.20;;;;;;;;;;5109654;27;20274;-69
2023/01/19 01:14:04;;;;;;;15.18;4.80;;;;;;;;;;5141726;27;20054;-69
2023/01/19 01:16:29;;;;;;;13.52;3.50;;;;;;;;;;5143224;27;20069;-69
2023/01/19 01:18:54;;;;;;;19.63;4.07;;;;;;;;;;5141229;27;20690;-70
2023/01/19 01:21:19;;;;;;;18.00;3.33;;;;;;;;;;5137904;27;20079;-69
2023/01/19 01:23:45;;;;;;;8.97;3.10;;;;;;;;;;5117319;27;20290;-70
2023/01/19 01:26:10;;;;;;;19.03;3.63;;;;;;;;;;5134571;27;20088;-69
2023/01/19 01:28:35;;;;;;;20.70;3.60;;;;;;;;;;5114666;27;20158;-69
2023/01/19 01:31:00;;;;;;;23.83;4.20;;;;;;;;;;5130709;27;20023;-70
2023/01/19 01:33:26;;;;;;;14.97;3.50;;;;;;;;;;5133598;27;20066;-69
2023/01/19 01:35:51;;;;;;;16.33;3.10;;;;;;;;;;5134746;27;20023;-69
2023/01/19 01:38:16;;;;;;;22.13;3.65;;;;;;;;;;5128848;27;20027;-69
2023/01/19 01:40:42;;;;;;;22.77;3.60;;;;;;;;;;5126796;27;20089;-70
2023/01/19 01:43:11;;;;;;;21.42;3.55;;;;;;;;;;5129854;27;20062;-69
2023/01/19 01:45:38;;;;;;;16.48;3.83;;;;;;;;;;5128683;27;20118;-69
2023/01/19 01:48:07;;;;;;;21.25;3.65;;;;;;;;;;5108314;27;20489;-69
2023/01/19 01:50:34;;;;;;;22.88;3.65;;;;;;;;;;5135510;27;20026;-69
2023/01/19 01:52:59;;;;;;;19.95;3.20;;;;;;;;;;5136070;27;20400;-69
2023/01/19 01:55:26;;;;;;;18.27;4.67;;;;;;;;;;5133693;27;20035;-69
2023/01/19 01:57:56;;;;;;;18.60;3.60;;;;;;;;;;5118746;27;20031;-69
2023/01/19 02:00:21;;;;;;;21.35;3.50;;;;;;;;;;5137871;27;20015;-69
2023/01/19 02:02:49;;;;;;;25.00;4.35;;;;;;;;;;5116630;27;20045;-69
2023/01/19 02:05:17;;;;;;;29.02;4.00;;;;;;;;;;5133728;27;20019;-69
2023/01/19 02:13:22;;;;;;;26.15;3.80;;;;;;;;;;5134343;27;20069;-69
2023/01/19 02:15:48;;;;;;;27.33;4.43;;;;;;;;;;5138632;27;20479;-68
2023/01/19 02:18:14;;;;;;;20.88;4.38;;;;;;;;;;5138429;27;20076;-69
2023/01/19 02:20:41;;;;;;;15.02;3.30;;;;;;;;;;5134702;27;20100;-69
2023/01/19 02:23:11;;;;;;;14.77;3.22;;;;;;;;;;5135921;27;20789;-69
2023/01/19 02:25:36;;;;;;;;;;;;;;;;;;5131761;27;20055;-69
2023/01/19 02:28:02;;;;;;;18.33;3.90;;;;;;;;;;5115483;27;19961;-68
2023/01/19 02:30:27;;;;;;;20.77;3.40;;;;;;;;;;5138093;27;20049;-69
2023/01/19 02:32:53;;;;;;;18.08;3.80;;;;;;;;;;5132249;27;20022;-69
2023/01/19 02:35:18;;;;;;;26.20;3.17;;;;;;;;;;5137211;27;20042;-69
2023/01/19 02:37:44;;;;;;;14.75;3.08;;;;;;;;;;5144991;27;20354;-69
2023/01/19 02:40:11;;;;;;;20.67;3.28;;;;;;;;;;5141061;27;20023;-69
2023/01/19 02:42:39;;;;;;;18.20;4.28;;;;;;;;;;5116855;27;20035;-69
2023/01/19 02:45:05;;;;;;;15.23;2.97;;;;;;;;;;5139515;27;20085;-69
2023/01/19 02:47:42;;;;;;;15.50;3.17;;;;;;;;;;5140688;27;20098;-68
2023/01/19 02:50:26;;;;;;;21.13;3.15;;;;;;;;;;5126641;27;20069;-71
2023/01/19 02:52:54;;;;;;;17.85;3.42;;;;;;;;;;5118479;27;20055;-70
2023/01/19 02:55:26;;;;;;;22.33;3.58;;;;;;;;;;5137742;27;20023;-70
2023/01/19 02:57:57;;;;;;;21.70;3.95;;;;;;;;;;5134262;27;20126;-70
2023/01/19 03:00:32;;;;;;;16.15;3.03;;;;;;;;;;5134769;27;20031;-69
2023/01/19 03:03:04;;;;;;;14.32;2.97;;;;;;;;;;5116497;27;20099;-70
2023/01/19 03:05:33;;;;;;;19.92;4.00;;;;;;;;;;5141067;27;20022;-69
2023/01/19 03:08:05;;;;;;;17.38;3.65;;;;;;;;;;5147282;27;20022;-69
2023/01/19 03:10:45;;;;;;;18.88;3.05;;;;;;;;;;5143653;27;20030;-69
2023/01/19 03:13:30;;;;;;;18.98;3.50;;;;;;;;;;5143696;27;20758;-70
2023/01/19 03:16:12;;;;;;;25.40;3.85;;;;;;;;;;5106583;27;20035;-70
2023/01/19 03:18:38;;;;;;;24.35;3.90;;;;;;;;;;5136446;27;20023;-69
2023/01/19 03:21:05;;;;;;;23.38;3.55;;;;;;;;;;5139447;27;20031;-69
2023/01/19 03:23:31;;;;;;;21.98;3.50;;;;;;;;;;5137456;27;20027;-68
2023/01/19 03:25:58;;;;;;;20.70;3.20;;;;;;;;;;5115777;27;20023;-70
2023/01/19 03:28:24;;;;;;;19.55;3.30;;;;;;;;;;5133558;27;20385;-70
2023/01/19 03:30:53;;;;;;;21.20;3.50;;;;;;;;;;5133242;27;20027;-70
2023/01/19 03:33:26;;;;;;;18.85;2.90;;;;;;;;;;5132304;27;20627;-69
2023/01/19 03:35:53;;;;;;;16.90;3.13;;;;;;;;;;5115612;27;20035;-69
2023/01/19 03:38:21;;;;;;;24.10;4.28;;;;;;;;;;5135946;27;20415;-70
2023/01/19 03:40:46;;;;;;;21.70;3.22;;;;;;;;;;5112610;27;20113;-68
2023/01/19 03:43:12;;;;;;;26.77;4.15;;;;;;;;;;5117172;27;20590;-69
2023/01/19 03:45:38;;;;;;;24.65;4.30;;;;;;;;;;5122167;27;20031;-68
2023/01/19 03:48:04;;;;;;;28.85;3.55;;;;;;;;;;5134309;27;20030;-69
2023/01/19 03:50:29;;;;;;;17.02;3.10;;;;;;;;;;5136281;27;20045;-68
2023/01/19 03:53:05;;;;;;;19.20;3.58;;;;;;;;;;5135452;27;20029;-70
2023/01/19 03:55:30;;;;;;;18.60;2.75;;;;;;;;;;5131796;27;20019;-69
2023/01/19 03:57:56;;;;;;;13.18;2.25;;;;;;;;;;5134752;27;20116;-69
2023/01/19 04:00:21;;;;;;;12.00;2.20;;;;;;;;;;5128348;27;20039;-69
2023/01/19 04:02:46;;;;;;;16.77;2.80;;;;;;;;;;5136860;27;20058;-69
2023/01/19 04:05:13;;;;;;;17.97;2.93;;;;;;;;;;5113718;27;20287;-69
2023/01/19 04:07:38;;;;;;;14.95;2.90;;;;;;;;;;5120967;27;20030;-70
2023/01/19 04:10:03;;;;;;;17.83;3.10;;;;;;;;;;5136124;27;20023;-70
2023/01/19 04:12:29;;;;;;;18.10;3.22;;;;;;;;;;5134732;27;20042;-69
2023/01/19 04:14:54;;;;;;;20.47;3.30;;;;;;;;;;5124881;27;20524;-69
2023/01/19 04:17:19;;;;;;;16.30;3.33;;;;;;;;;;5123246;27;20274;-69
2023/01/19 04:19:45;;;;;;;15.27;3.38;;;;;;;;;;5127421;27;20083;-70
2023/01/19 04:22:10;;;;;;;21.67;3.17;;;;;;;;;;5120750;27;20089;-69
2023/01/19 04:24:35;;;;;;;16.57;3.83;;;;;;;;;;5145824;27;20083;-69
2023/01/19 04:27:00;;;;;;;15.17;2.40;;;;;;;;;;5119226;27;20053;-69
2023/01/19 04:29:25;;;;;;;14.23;2.17;;;;;;;;;;5141390;27;20643;-68
2023/01/19 04:31:51;;;;;;;13.60;2.90;;;;;;;;;;5134842;27;20037;-69
2023/01/19 04:34:16;;;;;;;15.07;1.70;;;;;;;;;;5120476;27;20026;-70
2023/01/19 04:36:41;;;;;;;19.70;2.57;;;;;;;;;;5133241;27;20353;-69
2023/01/19 04:39:08;;;;;;;16.00;2.40;;;;;;;;;;5114820;27;20271;-69
2023/01/19 04:41:33;;;;;;;13.60;2.50;;;;;;;;;;5117934;27;20464;-68
2023/01/19 04:43:59;;;;;;;10.15;2.00;;;;;;;;;;5116306;27;20078;-69
2023/01/19 04:46:24;;;;;;;11.82;1.85;;;;;;;;;;5115723;27;20066;-68
2023/01/19 04:48:49;;;;;;;15.83;2.13;;;;;;;;;;5130731;27;20033;-69
2023/01/19 04:51:15;;;;;;;10.37;2.43;;;;;;;;;;5120482;27;20310;-69
2023/01/19 04:53:40;;;;;;;7.33;1.90;;;;;;;;;;5108290;27;20051;-68
2023/01/19 04:56:05;;;;;;;7.60;1.80;;;;;;;;;;5117571;27;20020;-69
2023/01/19 04:58:31;;;;;;;9.10;2.00;;;;;;;;;;5115313;27;20023;-69
2023/01/19 05:00:56;;;;;;;4.57;1.60;;;;;;;;;;5132898;27;20041;-68
2023/01/19 05:03:21;;;;;;;7.13;1.75;;;;;;;;;;5139799;27;20132;-69
2023/01/19 05:05:46;;;;;;;5.30;1.13;;;;;;;;;;5112883;27;20027;-68
2023/01/19 05:08:12;;;;;;;5.43;0.90;;;;;;;;;;5132453;27;20039;-68
2023/01/19 05:10:37;;;;;;;8.93;1.40;;;;;;;;;;5136161;27;20263;-70
2023/01/19 05:13:03;;;;;;;5.18;0.90;;;;;;;;;;5129951;27;20659;-71
2023/01/19 05:15:28;;;;;;;7.43;0.93;;;;;;;;;;5142141;27;20030;-70
2023/01/19 05:17:55;;;;;;;5.22;1.25;;;;;;;;;;5120892;27;20023;-71
2023/01/19 05:20:21;;;;;;;4.45;0.77;;;;;;;;;;5114861;27;20027;-70
2023/01/19 05:22:50;;;;;;;4.17;0.90;;;;;;;;;;5116991;27;20064;-71
2023/01/19 05:25:15;;;;;;;5.68;1.00;;;;;;;;;;5112230;27;20046;-71
2023/01/19 05:27:40;;;;;;;8.23;1.10;;;;;;;;;;5127115;27;20069;-70
2023/01/19 05:30:06;;;;;;;8.70;1.60;;;;;;;;;;5134208;27;20023;-71
2023/01/19 05:32:31;;;;;;;8.93;1.98;;;;;;;;;;5103095;27;20024;-71
2023/01/19 05:34:57;;;;;;;6.05;1.20;;;;;;;;;;5103524;27;20096;-71
2023/01/19 05:37:22;;;;;;;3.63;0.90;;;;;;;;;;5143920;27;20492;-71
2023/01/19 05:39:47;;;;;;;7.27;1.10;;;;;;;;;;5127180;27;20540;-71
2023/01/19 05:42:12;;;;;;;5.13;1.97;;;;;;;;;;5136062;27;20581;-72
2023/01/19 05:44:38;;;;;;;3.10;0.93;;;;;;;;;;5143170;27;20382;-74
2023/01/19 05:47:04;;;;;;;2.83;0.90;;;;;;;;;;5139557;27;20031;-72
2023/01/19 05:49:29;;;;;;;1.75;0.57;;;;;;;;;;5135039;27;20079;-72
2023/01/19 05:51:54;;;;;;;1.00;0.40;;;;;;;;;;5138682;27;20023;-72
2023/01/19 05:54:20;;;;;;;2.60;0.60;;;;;;;;;;5139309;27;20072;-72
2023/01/19 05:56:45;;;;;;;2.33;0.32;;;;;;;;;;5131392;27;20480;-72
2023/01/19 05:59:10;;;;;;;3.50;0.70;;;;;;;;;;5119950;27;20059;-72
2023/01/19 06:01:37;;;;;;;1.23;0.30;;;;;;;;;;5140079;27;20027;-73
2023/01/19 06:04:03;;;;;;;0.95;0.40;;;;;;;10.00;nan;98894.16;5133305;27;20325;-73
2023/01/19 06:06:28;;;;;;;1.88;0.90;;;;;;;;;;5133851;27;20087;-72
2023/01/19 06:08:53;;;;;;;2.13;1.57;;;;;;;;;;5113733;27;20027;-72
2023/01/19 06:11:19;;;;;;;5.43;3.97;;;;;;;;;;5113997;27;20282;-72
2023/01/19 06:13:45;;;;;;;8.95;6.50;;;;;;;;;;5150694;27;20079;-72
2023/01/19 06:16:10;;;;;;;2.85;1.52;;;;;;;;;;5130122;27;20022;-72
2023/01/19 06:18:36;;;;;;;5.07;0.90;;;;;;;;;;5116443;27;20027;-73
2023/01/19 06:21:02;;;;;;;1.42;0.40;;;;;;;;;;5135635;27;20023;-72
2023/01/19 06:23:31;;;;;;;0.57;0.30;;;;;;;;;;5116451;27;20117;-73
2023/01/19 06:25:56;;;;;;;2.80;0.50;;;;;;;;;;5132033;27;20025;-72
2023/01/19 06:28:21;;;;;;;1.10;0.53;;;;;;;;;;5116275;27;20386;-72
2023/01/19 06:30:48;;;;;;;3.30;2.22;;;;;;;;;;5139809;27;20114;-73
2023/01/19 06:33:14;;;;;;;1.90;1.20;;;;;;;;;;5117299;27;20045;-74
2023/01/19 06:35:41;;;;;;;1.77;0.70;;;;;;;;;;5117519;27;20031;-74
2023/01/19 06:38:06;;;;;;;0.90;0.50;;;;;;;;;;5132404;27;20488;-71
2023/01/19 06:40:32;;;;;;;2.80;0.70;;;;;;;;;;5129586;27;20106;-73
2023/01/19 06:42:57;;;;;;;4.35;0.90;;;;;;;;;;5112673;27;20106;-73
2023/01/19 06:45:22;;;;;;;2.60;0.90;;;;;;;;;;5129151;27;20156;-73
2023/01/19 06:47:47;;;;;;;3.53;0.70;;;;;;;;;;5125790;27;20032;-71
2023/01/19 06:50:12;;;;;;;2.30;0.40;;;;;;;;;;5128729;27;20019;-73
2023/01/19 06:52:41;;;;;;;3.70;0.60;;;;;;;;;;5139582;27;20305;-72
2023/01/19 06:55:09;;;;;;;1.65;0.50;;;;;;;;;;5127813;27;20015;-70
2023/01/19 06:57:34;;;;;;;2.60;0.50;;;;;;;;;;5128321;27;20041;-72
2023/01/19 07:00:00;;;;;;;2.83;0.90;;;;;;;;;;5109924;27;20015;-71
2023/01/19 07:02:26;;;;;;;4.05;1.13;;;;;;;;;;5111576;27;20279;-70
2023/01/19 07:04:51;;;;;;;4.72;1.17;;;;;;;;;;5129133;27;20023;-69
2023/01/19 07:07:16;;;;;;;4.27;1.70;;;;;;;;;;5134319;27;20035;-76
2023/01/19 07:09:42;;;;;;;6.00;1.50;;;;;;;;;;5128061;27;20039;-74
2023/01/19 07:12:08;;;;;;;4.33;1.10;;;;;;;;;;5118139;27;20335;-75
2023/01/19 07:14:33;;;;;;;6.60;1.88;;;;;;;;;;5115726;27;20363;-73
2023/01/19 07:16:59;;;;;;;5.47;1.30;;;;;;;;;;5112594;27;20107;-74
2023/01/19 07:19:24;;;;;;;7.70;1.52;;;;;;;;;;5121878;27;20333;-75
2023/01/19 07:21:49;;;;;;;9.15;0.93;;;;;;;;;;5123176;27;20035;-75
2023/01/19 07:24:14;;;;;;;3.83;1.10;;;;;;;;;;5127914;27;20083;-75
2023/01/19 07:26:40;;;;;;;7.73;1.10;;;;;;;;;;5109377;27;20314;-77
2023/01/19 07:29:05;;;;;;;4.18;0.93;;;;;;;;;;5131809;27;20037;-69
2023/01/19 07:31:30;;;;;;;3.60;1.00;;;;;;;;;;5130585;27;20023;-75
2023/01/19 07:33:56;;;;;;;8.60;1.75;;;;;;;;;;5127467;27;20630;-76
2023/01/19 07:36:22;;;;;;;4.43;1.13;;;;;;;;;;5109725;27;20108;-76
2023/01/19 07:38:47;;;;;;;4.05;1.10;;;;;;;;;;5137423;27;20629;-76
2023/01/19 07:41:12;;;;;;;8.53;1.13;;;;;;;;;;5114766;27;20047;-77
2023/01/19 07:43:38;;;;;;;8.85;1.40;;;;;;;;;;5139158;27;20299;-76
2023/01/19 07:46:04;;;;;;;11.37;2.87;;;;;;;;;;5134935;27;20030;-76
2023/01/19 07:48:29;;;;;;;6.35;1.08;;;;;;;;;;5112211;27;20263;-76
2023/01/19 07:51:07;;;;;;;4.57;1.00;;;;;;;;;;5115319;27;20023;-75
2023/01/19 07:53:32;;;;;;;8.00;1.10;;;;;;;;;;5130106;27;20075;-75
2023/01/19 07:55:57;;;;;;;5.33;1.20;;;;;;;;;;5128252;27;20019;-75
2023/01/19 07:58:23;;;;;;;6.50;1.02;;;;;;;;;;5113760;27;20034;-75
2023/01/19 08:00:49;;;;;;;7.68;0.93;;;;;;;;;;5127948;27;20027;-70
2023/01/19 08:03:15;;;;;;;4.72;1.27;;;;;;;;;;5128240;27;20027;-70
2023/01/19 08:05:40;;;;;;;4.28;1.42;;;;;;;;;;5126303;27;20173;-70
2023/01/19 08:08:06;;;;;;;4.47;1.30;;;;;;;;;;5132856;27;20400;-70
2023/01/19 08:10:31;;;;;;;11.67;1.37;;;;;;;;;;5130370;27;20294;-72
2023/01/19 08:12:57;;;;;;;3.95;1.60;;;;;;;;;;5123542;27;20019;-72
2023/01/19 08:15:23;;;;;;;8.63;1.58;;;;;;;;;;5141721;27;20121;-76
2023/01/19 08:17:59;;;;;;;7.07;1.48;;;;;;;;;;5112647;27;20381;-77
2023/01/19 08:20:25;;;;;;;9.23;1.38;;;;;;;;;;5133298;27;20131;-76
2023/01/19 08:22:58;;;;;;;8.95;2.60;;;;;;;;;;5129384;27;20019;-76
2023/01/19 08:25:23;;;;;;;12.52;4.20;;;;;;;;;;5135428;27;20050;-75
2023/01/19 08:27:49;;;;;;;13.48;3.78;;;;;;;;;;5128546;27;20413;-76
2023/01/19 08:30:14;;;;;;;10.10;3.13;;;;;;;;;;5125836;27;20031;-77
2023/01/19 08:32:39;;;;;;;6.30;1.67;;;;;;;;;;5117887;27;20275;-76
2023/01/19 08:35:05;;;;;;;7.83;1.70;;;;;;;;;;5133539;27;20020;-77
2023/01/19 08:37:30;;;;;;;5.68;1.52;;;;;;;;;;5127239;27;20034;-77
2023/01/19 08:39:55;;;;;;;7.80;1.95;;;;;;;;;;5108618;28;20122;-77
2023/01/19 08:42:21;;;;;;;8.37;1.60;;;;;;;;;;5123563;27;20042;-77
2023/01/19 08:44:46;;;;;;;16.63;1.97;;;;;;;;;;5142044;27;20077;-78
2023/01/19 08:47:11;;;;;;;6.70;1.73;;;;;;;;;;5132927;27;20031;-77
2023/01/19 08:49:36;;;;;;;9.47;2.80;;;;;;;;;;5122237;27;20685;-77
2023/01/19 08:52:02;;;;;;;11.93;1.97;;;;;;;;;;5116593;27;20278;-77
2023/01/19 08:54:27;;;;;;;8.93;1.97;;;;;;;;;;5119544;27;20378;-77
2023/01/19 08:56:52;;;;;;;5.68;1.40;;;;;;;;;;5130675;27;20287;-77
2023/01/19 08:59:18;;;;;;;8.05;1.80;;;;;;;;;;5134613;27;20054;-76
2023/01/19 09:01:43;;;;;;;12.50;2.90;;;;;;;;;;5127459;27;20515;-77
2023/01/19 09:04:08;;;;;;;13.97;2.17;;;;;;;;;;5130867;27;20145;-76
2023/01/19 09:06:33;;;;;;;11.07;3.00;;;;;;;;;;5125257;27;20382;-77
2023/01/19 09:08:59;;;;;;;12.83;2.40;;;;;;;;;;5132100;27;20105;-76
2023/01/19 09:11:24;;;;;;;10.27;2.30;;;;;;;;;;5110362;27;20613;-77
2023/01/19 09:13:50;;;;;;;12.05;2.20;;;;;;;;;;5128076;27;20033;-72
2023/01/19 09:16:15;;;;;;;10.55;2.05;;;;;;;;;;5125001;27;20015;-73
2023/01/19 09:18:40;;;;;;;11.23;2.57;;;;;;;;;;5112823;27;20028;-73
2023/01/19 09:21:07;;;;;;;6.93;1.55;;;;;;;;;;5134754;27;20262;-77
2023/01/19 09:23:32;;;;;;;12.32;2.30;;;;;;;;;;5117084;27;20030;-77
2023/01/19 09:25:59;;;;;;;11.60;2.15;;;;;;;;;;5117757;27;20037;-77
2023/01/19 09:28:24;;;;;;;8.45;2.05;;;;;;;;;;5112731;27;20042;-73
2023/01/19 09:30:50;;;;;;;11.48;2.03;;;;;;;;;;5135355;27;20026;-72
2023/01/19 09:33:16;;;;;;;7.70;2.00;;;;;;;;;;5116655;27;20026;-77
2023/01/19 09:35:42;;;;;;;10.63;2.38;;;;;;;;;;5113204;27;20019;-78
2023/01/19 09:38:07;;;;;;;12.27;2.20;;;;;;;;;;5134668;27;20031;-72
2023/01/19 09:40:35;;;;;;;7.90;2.58;;;;;;;;;;5125190;27;20924;-71
2023/01/19 09:43:15;;;;;;;11.95;2.50;;;;;;;;;;5130579;27;20078;-72
2023/01/19 09:46:04;;;;;;;12.35;2.58;;;;;;;;;;5132054;27;20793;-71
2023/01/19 09:48:41;;;;;;;11.88;2.75;;;;;;;;;;5122739;27;20062;-74
2023/01/19 09:51:09;;;;;;;12.50;2.00;;;;;;;;;;5128773;27;20026;-74
2023/01/19 09:53:50;;;;;;;9.48;2.00;;;;;;;;;;5131975;27;20362;-73
2023/01/19 09:56:17;;;;;;;12.25;2.40;;;;;;;;;;5114080;27;20019;-74
2023/01/19 09:58:42;;;;;;;7.20;2.10;;;;;;;;;;5138409;27;20111;-74
2023/01/19 10:01:20;;;;;;;12.90;2.30;;;;;;;;;;5120775;27;20126;-74
2023/01/19 10:03:47;;;;;;;13.48;2.35;;;;;;;;;;5121863;27;20031;-71
2023/01/19 10:06:13;;;;;;;9.18;2.40;;;;;;;;;;5113903;27;20369;-71
2023/01/19 10:08:58;;;;;;;8.00;1.92;;;;;;;;;;5118604;27;20091;-71
2023/01/19 10:11:38;;;;;;;9.07;2.00;;;;;;;;;;5135199;27;20079;-73
2023/01/19 10:14:09;;;;;;;4.80;1.50;;;;;;;;;;5118941;27;20023;-74
2023/01/19 10:17:04;;;;;;;8.30;1.98;;;;;;;;;;5131701;27;20057;-73
2023/01/19 10:19:32;;;;;;;4.55;1.35;;;;;;;;;;5114813;27;20031;-73
2023/01/19 10:21:59;;;;;;;8.43;1.70;;;;;;;;;;5134906;27;20022;-73
2023/01/19 10:24:27;;;;;;;7.63;1.27;;;;;;;;;;5134829;27;20069;-73
2023/01/19 10:26:53;;;;;;;6.85;1.40;;;;;;;;;;5133732;27;20058;-73
2023/01/19 10:29:35;;;;;;;5.32;1.20;;;;;;;;;;5125514;27;20060;-73
2023/01/19 10:32:20;;;;;;;5.57;1.30;;;;;;;;;;5118781;27;20035;-74
2023/01/19 10:34:46;;;;;;;5.30;1.35;;;;;;;;;;5105604;27;20027;-73
2023/01/19 10:37:14;;;;;;;6.93;1.20;;;;;;;;;;5123334;27;20023;-72
2023/01/19 10:39:40;;;;;;;3.58;0.82;;;;;;;;;;5124947;27;20023;-70
2023/01/19 10:42:09;;;;;;;1.83;0.90;;;;;;;;;;5128009;27;20067;-69
2023/01/19 10:44:35;;;;;;;3.65;0.95;;;;;;;;;;5136238;27;20074;-68
2023/01/19 10:47:01;;;;;;;3.60;0.93;;;;;;;;;;5141454;27;20019;-69
2023/01/19 10:49:26;;;;;;;1.63;0.70;;;;;;;;;;5137727;27;20035;-72
2023/01/19 10:51:55;;;;;;;3.23;1.10;;;;;;;;;;5132537;27;20023;-71
2023/01/19 10:54:20;;;;;;;;;;;;;;;;;;5124880;27;20282;-69
2023/01/19 10:57:02;;;;;;;5.45;1.13;;;;;;;;;;5123043;27;19911;-70
2023/01/19 10:59:36;;;;;;;3.10;1.23;;;;;;;;;;5111538;27;20483;-71
2023/01/19 11:02:20;;;;;;;7.18;1.40;;;;;;;;;;5122689;27;20026;-74
2023/01/19 11:04:47;;;;;;;4.55;1.13;;;;;;;;;;5127776;27;20492;-70
2023/01/19 11:07:13;;;;;;;4.10;1.02;;;;;;;;;;5124883;27;20026;-69
2023/01/19 11:09:38;;;;;;;7.13;1.33;;;;;;;;;;5109170;27;20027;-71
2023/01/19 11:12:14;;;;;;;3.43;1.10;;;;;;;;;;5109268;27;20023;-69
2023/01/19 11:14:40;;;;;;;4.78;1.33;;;;;;;;;;5112129;27;20775;-70
2023/01/19 11:17:16;;;;;;;6.75;1.27;;;;;;;;;;5126572;27;20050;-70
2023/01/19 11:19:41;;;;;;;2.53;1.08;;;;;;;;;;5107596;27;20360;-73
2023/01/19 11:22:20;;;;;;;3.70;0.90;;;;;;;;;;5125381;27;20019;-75
2023/01/19 11:24:46;;;;;;;4.03;1.00;;;;;;;;;;5127773;27;20027;-72
2023/01/19 11:27:14;;;;;;;4.07;0.90;;;;;;;;;;5129990;27;20029;-71
2023/01/19 11:29:45;;;;;;;2.78;1.00;;;;;;;;;;5129452;27;20024;-72
2023/01/19 11:32:11;;;;;;;2.63;1.20;;;;;;;;;;5134470;27;20047;-72
2023/01/19 11:34:38;;;;;;;5.97;1.20;;;;;;;;;;5116918;27;20354;-73
2023/01/19 11:37:23;;;;;;;4.38;1.15;;;;;;;;;;5120720;27;20014;-71
2023/01/19 11:39:52;;;;;;;6.82;1.23;;;;;;;;;;5112808;27;20403;-71
2023/01/19 11:42:18;;;;;;;3.80;1.17;;;;;;;;;;5133082;27;20477;-73
2023/01/19 11:44:43;;;;;;;4.20;1.10;;;;;;;;;;5130554;27;20134;-71
2023/01/19 11:47:15;;;;;;;6.13;1.20;;;;;;;;;;5132646;27;20094;-71
2023/01/19 11:49:48;;;;;;;5.82;1.42;;;;;;;12.68;nan;99030.78;5129479;27;20019;-72
2023/01/19 11:52:33;;;;;;;4.80;1.00;;;;;;;;;;5134327;27;20493;-72
2023/01/19 11:55:05;;;;;;;5.20;1.10;;;;;;;;;;5129685;27;20045;-72
2023/01/19 11:57:30;;;;;;;3.83;1.05;;;;;;;;;;5118866;27;20049;-71
2023/01/19 12:00:02;;;;;;;5.13;1.23;;;;;;;;;;5126092;27;20113;-72
2023/01/19 12:02:29;;;;;;;4.85;1.30;;;;;;;;;;5133689;27;20271;-72
2023/01/19 12:04:55;;;;;;;5.38;1.30;;;;;;;;;;5126823;27;20393;-74
2023/01/19 12:07:24;;;;;;;6.50;1.00;;;;;;;;;;5115453;27;20413;-75
2023/01/19 12:09:52;;;;;;;4.30;1.08;;;;;;;;;;5128657;27;20042;-71
2023/01/19 12:12:31;;;;;;;3.70;1.30;;;;;;;;;;5107604;27;20432;-73
2023/01/19 12:15:01;;;;;;;7.10;1.48;;;;;;;;;;5133487;27;20464;-71
2023/01/19 12:17:32;;;;;;;4.38;1.55;;;;;;;;;;5126431;27;20066;-71
2023/01/19 12:20:37;;;;;;;3.47;1.23;;;;;;;;;;5130714;27;20076;-71
2023/01/19 12:23:21;;;;;;;5.80;1.30;;;;;;;;;;5027496;28;20033;-73
2023/01/19 12:26:12;;;;;;;4.13;1.35;;;;;;;;;;5026862;28;20083;-71
2023/01/19 12:28:39;;;;;;;3.53;1.38;;;;;;;;;;5013278;28;20041;-71
2023/01/19 12:31:04;;;;;;;4.32;1.52;;;;;;;;;;5026899;28;20476;-71
2023/01/19 12:33:37;;;;;;;2.53;1.10;;;;;;;;;;5025342;28;20071;-71
2023/01/19 12:36:10;;;;;;;6.68;1.63;;;;;;;;;;5026416;28;20274;-71
2023/01/19 12:38:38;;;;;;;3.75;1.40;;;;;;;;;;5029377;28;20047;-71
2023/01/19 12:41:18;;;;;;;3.30;1.02;;;;;;;;;;5032104;28;20064;-71
2023/01/19 12:43:43;;;;;;;5.75;1.55;;;;;;;;;;5034678;28;20057;-70
2023/01/19 12:46:18;;;;;;;5.53;1.50;;;;;;;;;;5030867;28;20049;-71
2023/01/19 12:48:44;;;;;;;4.65;1.55;;;;;;;;;;5029412;28;20037;-71
2023/01/19 12:51:20;;;;;;;5.80;1.52;;;;;;;;;;5035120;28;20210;-72
2023/01/19 12:53:50;;;;;;;4.05;1.00;;;;;;;;;;5077550;27;20134;-71
2023/01/19 12:56:15;;;;;;;;;;;;;;;;;;5111087;27;20026;-71
2023/01/19 12:58:46;;;;;;;2.45;1.08;;;;;;;;;;5132728;27;19993;-71
2023/01/19 13:01:13;;;;;;;3.08;1.30;;;;;;;;;;5124339;27;20038;-71
2023/01/19 13:03:57;;;;;;;5.75;1.20;;;;;;;;;;5123721;27;20510;-71
2023/01/19 13:06:42;;;;;;;3.25;1.15;;;;;;;;;;5133716;27;20071;-72
2023/01/19 13:09:27;;;;;;;4.07;1.15;;;;;;;;;;5116916;27;20030;-72
2023/01/19 13:12:11;;;;;;;3.75;1.67;;;;;;;;;;5136467;27;20030;-71
2023/01/19 13:14:37;;;;;;;5.07;1.30;;;;;;;;;;5135332;27;20030;-72
2023/01/19 13:17:04;;;;;;;3.83;1.23;;;;;;;;;;5114164;27;20074;-71
2023/01/19 13:19:34;;;;;;;4.25;1.40;;;;;;;;;;5120258;27;20706;-71
2023/01/19 13:22:20;;;;;;;4.15;1.23;;;;;;;;;;5133624;27;20043;-72
2023/01/19 13:25:04;;;;;;;6.43;1.50;;;;;;;;;;5128448;27;20035;-71
2023/01/19 13:27:29;;;;;;;5.00;1.50;;;;;;;;;;5122893;27;20094;-71
2023/01/19 13:29:54;;;;;;;4.43;1.10;;;;;;;;;;5111551;27;20192;-72
2023/01/19 13:32:23;;;;;;;3.47;1.30;;;;;;;;;;5110761;27;20629;-74
2023/01/19 13:34:57;;;;;;;2.43;1.10;;;;;;;;;;5102429;27;20019;-72
2023/01/19 13:37:24;;;;;;;5.20;1.58;;;;;;;;;;5127521;27;20026;-71
2023/01/19 13:39:53;;;;;;;4.13;1.27;;;;;;;;;;5108345;28;20023;-73
2023/01/19 13:42:27;;;;;;;5.32;1.15;;;;;;;;;;5125192;27;20030;-71
2023/01/19 13:44:53;;;;;;;3.58;1.35;;;;;;;;;;5102688;28;20146;-68
2023/01/19 13:47:21;;;;;;;4.97;1.60;;;;;;;;;;5109961;27;20039;-69
2023/01/19 13:49:49;;;;;;;5.15;1.50;;;;;;;;;;5110597;27;20050;-72
2023/01/19 13:52:18;;;;;;;4.15;1.30;;;;;;;;;;5109851;27;20031;-70
2023/01/19 13:54:51;;;;;;;3.30;1.38;;;;;;;;;;5115982;27;20027;-70
2023/01/19 13:57:48;;;;;;;4.32;1.48;;;;;;;;;;5113494;27;20035;-71
2023/01/19 14:00:17;;;;;;;12.90;6.50;;;;;;;;;;5071296;27;20039;-70
2023/01/19 14:03:00;;;;;;;16.83;8.82;;;;;;;;;;5108680;28;20564;-72
2023/01/19 14:05:29;;;;;;;16.10;9.35;;;;;;;;;;5111002;27;20473;-71
2023/01/19 14:08:12;;;;;;;25.10;11.88;;;;;;;;;;5110168;28;20126;-71
2023/01/19 14:10:39;;;;;;;17.65;10.80;;;;;;;;;;5109898;27;20027;-71
2023/01/19 14:13:05;;;;;;;16.08;9.70;;;;;;;;;;5111792;27;20021;-72
2023/01/19 14:15:31;;;;;;;17.75;10.02;;;;;;;;;;5111197;27;20019;-71
2023/01/19 14:18:07;;;;;;;13.32;8.20;;;;;;;;;;5111520;27;20374;-72
2023/01/19 14:20:35;;;;;;;15.23;8.98;;;;;;;;;;5111269;27;20035;-72
2023/01/19 14:23:00;;;;;;;28.77;12.15;;;;;;;;;;5117797;27;20033;-73
2023/01/19 14:25:30;;;;;;;20.20;11.13;;;;;;;;;;5112541;27;20008;-73
2023/01/19 14:27:55;;;;;;;;;;;;;;;;;;5113530;27;20023;-73
2023/01/19 14:30:21;;;;;;;14.02;9.25;;;;;;;;;;5115518;27;20294;-72
2023/01/19 14:32:46;;;;;;;17.10;10.95;;;;;;;;;;5112261;27;20080;-72
2023/01/19 14:35:22;;;;;;;18.83;11.25;;;;;;;;;;5112935;27;20022;-73
2023/01/19 14:37:49;;;;;;;30.83;16.23;;;;;;;;;;5111057;27;20099;-72
2023/01/19 14:40:17;;;;;;;18.45;10.75;;;;;;;;;;5105549;28;20074;-72
2023/01/19 14:42:54;;;;;;;18.35;11.00;;;;;;;;;;5117510;27;20019;-73
2023/01/19 14:45:19;;;;;;;17.25;9.93;;;;;;;;;;5112475;27;20827;-71
2023/01/19 14:47:45;;;;;;;13.27;7.90;;;;;;;;;;5112890;27;20028;-72
2023/01/19 14:50:17;;;;;;;17.80;9.70;;;;;;;;;;5109761;27;20023;-72